Maersk Weymouth — VRFS9 — position and weather

sailwx.info

Track history (hours):
 
Tides and Currents Weather Stations Pressure Air Temp Water Temp Dewpoint Dewpoint Depression Visibility Wind Speed Wind Dir Waves Ship Positions

Maersk Weymouth

Last reported at 2015-Jan-16 08:28 UTC. Time now 2015-Jan-31 05:34 UTC.
Position N 35°53' W 005°51'.
Warning: this ship's position is 14 days out of date.

Length 172 m; draft 6.8 m.

Type: Cargo ship. MMSI: 477622100.

Date/timePositionNaut miles runAvg speedWind from/ knotsBaromVisibWave heightAir tempDewpointWater temp
2015-Jan-16 08:28N 35°53' W 005°51'  
2015-Jan-11 11:33N 11°18' W 017°42'1515.4
2015-Jan-11 10:33N 11°03' W 017°40'10714.9
2015-Jan-11 03:21N 09°33' W 016°43'7514.8
2015-Jan-10 22:17N 08°30' W 016°00'910.2
2015-Jan-10 21:23N 08°30' W 015°51'4214.7
2015-Jan-10 18:33N 08°30' W 015°09'1514.7
2015-Jan-10 17:31N 08°30' W 014°54'1714.9
2015-Jan-10 16:24N 08°30' W 014°37'1315.1
2015-Jan-10 15:33N 08°30' W 014°24'70 5.3
2015-Jan-10 02:15N 08°30' W 013°13'23 0.9
2015-Jan-09 00:33N 08°25' W 013°36'1 0.4
2015-Jan-08 22:34N 08°26' W 013°35'0 0.2
2015-Jan-08 21:34N 08°26' W 013°35'0 0.1
2015-Jan-08 20:30N 08°26' W 013°35'1 0.6
2015-Jan-08 19:34N 08°26' W 013°36'1 0.7
2015-Jan-08 18:34N 08°25' W 013°36'1 0.3
2015-Jan-08 16:33N 08°25' W 013°37'2 0.6
2015-Jan-08 12:34N 08°28' W 013°37'1 0.8
2015-Jan-08 11:34N 08°28' W 013°37'1 0.6
2015-Jan-08 10:11N 08°29' W 013°37'1 0.4
2015-Jan-08 08:33N 08°29' W 013°37'1 0.6
2015-Jan-08 07:08N 08°29' W 013°38'6 4.1
2015-Jan-08 05:34N 08°26' W 013°44'1 0.7
2015-Jan-08 04:14N 08°27' W 013°45'0 0.4
2015-Jan-08 03:46N 08°27' W 013°45'0 0.4
2015-Jan-08 03:34N 08°27' W 013°45'1 0.7
2015-Jan-08 02:34N 08°27' W 013°45'1 0.7
2015-Jan-08 00:34N 08°29' W 013°45'3 0.6
2015-Jan-07 20:31N 08°31' W 013°46'1 1.0
2015-Jan-07 19:34N 08°31' W 013°47'1 1.0
2015-Jan-07 18:34N 08°31' W 013°48'18 2.9
2015-Jan-07 12:33N 08°13' W 013°50'  
Track history (hours):
 
Tides and Currents Weather Stations Pressure Air Temp Water Temp Dewpoint Dewpoint Depression Visibility Wind Speed Wind Dir Waves Ship Positions

Maersk Weymouth

Last reported at 2015-Jan-16 08:28 UTC. Time now 2015-Jan-31 05:34 UTC.
Position N 35°53' W 005°51'.
Warning: this ship's position is 14 days out of date.

Length 172 m; draft 6.8 m.

Type: Cargo ship. MMSI: 477622100.

Date/timePositionNaut miles runAvg speedWind from/ knotsBaromVisibWave heightAir tempDewpointWater temp
2015-Jan-16 08:28N 35°53' W 005°51'  
2015-Jan-11 11:33N 11°18' W 017°42'1515.4
2015-Jan-11 10:33N 11°03' W 017°40'10714.9
2015-Jan-11 03:21N 09°33' W 016°43'7514.8
2015-Jan-10 22:17N 08°30' W 016°00'910.2
2015-Jan-10 21:23N 08°30' W 015°51'4214.7
2015-Jan-10 18:33N 08°30' W 015°09'1514.7
2015-Jan-10 17:31N 08°30' W 014°54'1714.9
2015-Jan-10 16:24N 08°30' W 014°37'1315.1
2015-Jan-10 15:33N 08°30' W 014°24'70 5.3
2015-Jan-10 02:15N 08°30' W 013°13'23 0.9
2015-Jan-09 00:33N 08°25' W 013°36'1 0.4
2015-Jan-08 22:34N 08°26' W 013°35'0 0.2
2015-Jan-08 21:34N 08°26' W 013°35'0 0.1
2015-Jan-08 20:30N 08°26' W 013°35'1 0.6
2015-Jan-08 19:34N 08°26' W 013°36'1 0.7
2015-Jan-08 18:34N 08°25' W 013°36'1 0.3
2015-Jan-08 16:33N 08°25' W 013°37'2 0.6
2015-Jan-08 12:34N 08°28' W 013°37'1 0.8
2015-Jan-08 11:34N 08°28' W 013°37'1 0.6
2015-Jan-08 10:11N 08°29' W 013°37'1 0.4
2015-Jan-08 08:33N 08°29' W 013°37'1 0.6
2015-Jan-08 07:08N 08°29' W 013°38'6 4.1
2015-Jan-08 05:34N 08°26' W 013°44'1 0.7
2015-Jan-08 04:14N 08°27' W 013°45'0 0.4
2015-Jan-08 03:46N 08°27' W 013°45'0 0.4
2015-Jan-08 03:34N 08°27' W 013°45'1 0.7
2015-Jan-08 02:34N 08°27' W 013°45'1 0.7
2015-Jan-08 00:34N 08°29' W 013°45'3 0.6
2015-Jan-07 20:31N 08°31' W 013°46'1 1.0
2015-Jan-07 19:34N 08°31' W 013°47'1 1.0
2015-Jan-07 18:34N 08°31' W 013°48'18 2.9
2015-Jan-07 12:33N 08°13' W 013°50'  

Dump ship's entire track history